Time;durP1;ratioP1;P1;durP2;ratioP2;P2;SDS_P1;SDS_P2;PMS_P1;PMS_P2;Temp;Humidity;BMP_temperature;BMP_pressure;BME280_temperature;BME280_humidity;BME280_pressure;Samples;Min_cycle;Max_cycle;Signal;HPM_P1;HPM_P2
2022/09/08 00:02:02;;;;;;;1.10;0.80;;;;;;;18.00;48.06;99141.72;5150869;27;20022;-69
2022/09/08 00:04:28;;;;;;;1.27;0.65;;;;;;;18.01;47.62;99150.59;5151426;27;20023;-71
2022/09/08 00:06:54;;;;;;;1.42;0.95;;;;;;;18.01;47.63;99153.28;5151316;27;20228;-72
2022/09/08 00:09:19;;;;;;;1.08;0.80;;;;;;;17.99;47.76;99146.25;5150097;27;20022;-72
2022/09/08 00:11:45;;;;;;;1.92;1.02;;;;;;;17.99;47.85;99154.28;5150389;27;20178;-74
2022/09/08 00:14:12;;;;;;;1.20;0.80;;;;;;;17.97;47.83;99156.28;5150893;27;20015;-71
2022/09/08 00:16:40;;;;;;;2.40;0.80;;;;;;;17.99;47.88;99159.63;5151209;27;20054;-68
2022/09/08 00:19:06;;;;;;;1.20;0.88;;;;;;;17.98;47.71;99160.66;5151277;27;20023;-70
2022/09/08 00:21:31;;;;;;;1.23;0.75;;;;;;;17.98;47.77;99159.78;5148924;27;20083;-70
2022/09/08 00:23:57;;;;;;;1.48;0.75;;;;;;;17.97;48.02;99156.28;5150998;27;20132;-70
2022/09/08 00:26:22;;;;;;;2.10;0.90;;;;;;;17.96;47.98;99162.63;5150927;27;20031;-65
2022/09/08 00:28:48;;;;;;;1.33;0.82;;;;;;;17.97;48.37;99155.41;5151057;27;20129;-71
2022/09/08 00:31:14;;;;;;;1.60;0.70;;;;;;;17.96;48.48;99157.28;5149002;27;20023;-69
2022/09/08 00:33:39;;;;;;;1.88;0.93;;;;;;;17.96;48.31;99161.78;5150434;27;20231;-72
2022/09/08 00:36:07;;;;;;;0.80;0.55;;;;;;;17.95;48.17;99162.78;5150878;27;20033;-69
2022/09/08 00:38:32;;;;;;;1.10;0.57;;;;;;;17.95;48.18;99168.13;5150855;27;20019;-72
2022/09/08 00:40:59;;;;;;;0.73;0.60;;;;;;;17.94;48.54;99167.31;5149525;27;20051;-69
2022/09/08 00:43:36;;;;;;;0.80;0.63;;;;;;;17.94;48.10;99163.81;5150454;27;20031;-72
2022/09/08 00:46:26;;;;;;;1.30;0.90;;;;;;;17.93;48.28;99162.97;5150642;27;20019;-69
2022/09/08 00:49:16;;;;;;;0.90;0.60;;;;;;;17.92;48.08;99169.34;5149885;27;20241;-66
2022/09/08 00:51:45;;;;;;;1.25;0.80;;;;;;;17.91;48.06;99170.34;5149193;27;20027;-72
2022/09/08 00:54:15;;;;;;;1.23;0.82;;;;;;;17.93;48.20;99167.50;5150464;27;20156;-72
2022/09/08 00:56:41;;;;;;;1.20;0.70;;;;;;;17.91;48.14;99167.66;5150428;27;20023;-74
2022/09/08 00:59:07;;;;;;;0.57;0.55;;;;;;;17.91;48.04;99161.50;5150746;27;20156;-73
2022/09/08 01:01:35;;;;;;;1.00;0.70;;;;;;;17.91;47.83;99164.19;5139611;27;20187;-72
2022/09/08 01:04:03;;;;;;;1.95;1.02;;;;;;;17.91;48.19;99159.66;5159726;27;20035;-66
2022/09/08 01:13:10;;;;;;;1.52;0.70;;;;;;;17.87;48.33;99152.97;5129586;27;20038;-67
2022/09/08 01:15:35;;;;;;;1.30;0.73;;;;;;;17.87;48.17;99166.34;5129490;27;20187;-72
2022/09/08 01:18:01;;;;;;;0.60;0.50;;;;;;;17.89;48.28;99169.69;5157587;27;20174;-69
2022/09/08 01:20:41;;;;;;;1.98;0.55;;;;;;;17.88;47.98;99164.53;5149932;27;20078;-72
2022/09/08 01:23:30;;;;;;;1.08;0.55;;;;;;;17.88;47.94;99164.53;5147876;27;20042;-69
2022/09/08 01:26:25;;;;;;;3.60;0.85;;;;;;;17.87;48.05;99169.03;5111470;27;20224;-69
2022/09/08 01:28:57;;;;;;;0.85;0.50;;;;;;;17.86;48.27;99170.06;5149846;27;20050;-70
2022/09/08 01:31:24;;;;;;;2.45;0.60;;;;;;;17.87;48.10;99176.25;5130587;27;20034;-68
2022/09/08 01:33:50;;;;;;;0.90;0.65;;;;;;;17.88;48.18;99175.22;5149382;27;20152;-71
2022/09/08 01:36:18;;;;;;;1.00;0.63;;;;;;;17.87;48.29;99178.91;5150461;27;20046;-70
2022/09/08 01:38:44;;;;;;;0.68;0.55;;;;;;;17.88;48.13;99176.03;5162961;27;20087;-73
2022/09/08 01:41:09;;;;;;;1.20;0.50;;;;;;;17.89;48.43;99172.38;5149158;27;20066;-70
2022/09/08 01:43:35;;;;;;;2.42;0.63;;;;;;;17.91;48.20;99182.91;5148595;27;20022;-68
2022/09/08 01:46:01;;;;;;;0.82;0.68;;;;;;;17.89;48.25;99180.41;5149454;27;20037;-71
2022/09/08 01:48:26;;;;;;;1.02;0.60;;;;;;;17.89;48.20;99177.72;5150038;27;20090;-70
2022/09/08 01:50:58;;;;;;;1.08;0.70;;;;;;;17.89;48.11;99185.75;5163933;27;20038;-68
2022/09/08 01:53:23;;;;;;;2.60;0.60;;;;;;;17.90;48.38;99183.91;5145096;27;20144;-71
2022/09/08 01:55:49;;;;;;;1.45;0.77;;;;;;;17.87;48.12;99182.41;5149318;27;20108;-70
2022/09/08 01:58:14;;;;;;;0.75;0.60;;;;;;;17.89;48.31;99187.59;5149502;27;20064;-70
2022/09/08 02:00:41;;;;;;;0.90;0.57;;;;;;;17.88;48.36;99189.44;5148888;27;20046;-72
2022/09/08 02:03:08;;;;;;;0.52;0.40;;;;;;;17.88;48.24;99185.94;5144233;27;20034;-69
2022/09/08 02:05:37;;;;;;;1.02;0.63;;;;;;;17.88;48.49;99192.09;5149108;27;20053;-72
2022/09/08 02:08:03;;;;;;;1.35;0.93;;;;;;;17.87;48.32;99190.44;5148559;27;20092;-70
2022/09/08 02:10:28;;;;;;;1.45;0.60;;;;;;;17.88;48.17;99192.09;5148861;27;20035;-74
2022/09/08 02:12:53;;;;;;;1.17;0.80;;;;;;;17.89;48.29;99192.97;5148996;27;20027;-70
2022/09/08 02:15:19;;;;;;;2.25;0.63;;;;;;;17.88;48.31;99192.09;5146528;27;20046;-70
2022/09/08 02:17:44;;;;;;;0.63;0.55;;;;;;;17.89;48.25;99201.81;5148429;27;20051;-67
2022/09/08 02:20:10;;;;;;;1.10;0.70;;;;;;;17.85;48.07;99197.84;5148774;27;20220;-70
2022/09/08 02:22:35;;;;;;;1.10;1.00;;;;;;;17.87;48.36;99201.16;5148637;27;20303;-72
2022/09/08 02:25:01;;;;;;;1.27;0.85;;;;;;;17.88;48.21;99199.31;5146674;27;20043;-72
2022/09/08 02:27:26;;;;;;;0.73;0.60;;;;;;;17.87;47.98;99209.19;5148214;27;20050;-71
2022/09/08 02:29:52;;;;;;;1.00;0.80;;;;;;;17.85;48.19;99204.00;5148711;27;20241;-72
2022/09/08 02:32:17;;;;;;;1.10;0.85;;;;;;;17.85;48.16;99201.34;5148586;27;20050;-70
2022/09/08 02:34:43;;;;;;;1.95;0.93;;;;;;;17.85;48.16;99203.19;5146652;27;20034;-72
2022/09/08 02:37:08;;;;;;;0.95;0.88;;;;;;;17.84;48.10;99205.03;5148252;27;20050;-70
2022/09/08 02:39:34;;;;;;;1.48;0.88;;;;;;;17.84;48.50;99212.22;5148512;27;20023;-70
2022/09/08 02:41:59;;;;;;;0.88;0.70;;;;;;;17.83;48.35;99213.22;5148215;27;20098;-69
2022/09/08 02:44:24;;;;;;;1.58;0.90;;;;;;;17.84;48.45;99220.25;5146314;27;20027;-68
2022/09/08 02:46:50;;;;;;;1.35;0.90;;;;;;;17.83;48.55;99216.72;5148100;27;20128;-73
2022/09/08 02:49:15;;;;;;;1.15;0.85;;;;;;;17.81;48.39;99210.72;5148132;27;20057;-70
2022/09/08 02:51:41;;;;;;;1.02;0.70;;;;;;;17.80;48.48;99213.56;5147959;27;20086;-71
2022/09/08 02:54:07;;;;;;;1.45;0.90;;;;;;;17.80;48.15;99221.59;5147989;27;20043;-72
2022/09/08 02:56:32;;;;;;;3.63;0.98;;;;;;;17.79;48.30;99215.41;5133623;27;20027;-73
2022/09/08 02:58:58;;;;;;;0.75;0.55;;;;;;;17.79;48.38;99220.75;5139175;27;20023;-70
2022/09/08 03:01:24;;;;;;;1.25;0.80;;;;;;;17.80;48.76;99226.97;5148006;27;20136;-71
2022/09/08 03:03:50;;;;;;;1.05;0.65;;;;;;;17.79;48.52;99231.47;5150728;27;20046;-69
2022/09/08 03:06:17;;;;;;;0.98;0.70;;;;;;;17.79;48.38;99230.66;5140080;27;20043;-69
2022/09/08 03:08:43;;;;;;;1.40;0.70;;;;;;;17.77;48.52;99230.84;5132360;27;20224;-67
2022/09/08 03:11:09;;;;;;;0.75;0.60;;;;;;;17.78;48.48;99237.00;5147390;27;20031;-70
2022/09/08 03:13:35;;;;;;;1.35;0.90;;;;;;;17.78;48.30;99239.69;5147682;27;20042;-70
2022/09/08 03:16:02;;;;;;;0.80;0.68;;;;;;;17.78;48.11;99237.84;5145175;27;20023;-71
2022/09/08 03:18:28;;;;;;;1.70;1.08;;;;;;;17.79;48.18;99241.34;5147946;27;20227;-73
2022/09/08 03:21:09;;;;;;;1.02;0.77;;;;;;;17.79;48.30;99246.69;5147812;27;20046;-70
2022/09/08 03:23:35;;;;;;;0.90;0.50;;;;;;;17.77;48.08;99244.22;5147192;27;20088;-71
2022/09/08 03:26:13;;;;;;;1.05;0.65;;;;;;;17.77;48.17;99244.22;5130821;27;20114;-70
2022/09/08 03:28:39;;;;;;;0.80;0.80;;;;;;;17.76;48.21;99247.91;5154328;27;20125;-71
2022/09/08 03:31:17;;;;;;;0.98;0.60;;;;;;;17.77;48.48;99251.38;5154691;27;20142;-71
2022/09/08 03:33:43;;;;;;;0.95;0.73;;;;;;;17.78;48.22;99255.72;5154410;27;20084;-69
2022/09/08 03:36:11;;;;;;;1.02;0.90;;;;;;;17.77;48.05;99252.25;5154269;27;20267;-72
2022/09/08 03:38:37;;;;;;;0.90;0.70;;;;;;;17.77;48.12;99254.91;5152734;27;20094;-68
2022/09/08 03:41:08;;;;;;;1.85;0.95;;;;;;;17.77;48.45;99254.06;5154541;27;20026;-69
2022/09/08 03:43:34;;;;;;;1.08;0.80;;;;;;;17.75;48.23;99264.97;5154454;27;20027;-69
2022/09/08 03:45:59;;;;;;;4.50;0.85;;;;;;;17.75;48.08;99261.44;5154790;27;20038;-68
2022/09/08 03:48:25;;;;;;;1.10;0.88;;;;;;;17.77;48.15;99270.13;5143472;27;20023;-72
2022/09/08 03:50:51;;;;;;;0.93;0.70;;;;;;;17.77;48.48;99264.75;5154529;27;20102;-68
2022/09/08 03:53:16;;;;;;;2.17;1.02;;;;;;;17.76;48.32;99269.31;5154534;27;20027;-70
2022/09/08 03:55:42;;;;;;;0.88;0.70;;;;;;;17.77;48.30;99281.69;5154400;27;20019;-68
2022/09/08 03:58:09;;;;;;;1.20;0.73;;;;;;;17.80;48.24;99277.81;5155398;27;20034;-73
2022/09/08 04:00:35;;;;;;;1.42;1.00;;;;;;;17.80;48.29;99291.19;5154364;27;20134;-69
2022/09/08 04:03:00;;;;;;;1.38;0.88;;;;;;;17.80;47.80;99291.19;5154399;27;20055;-70
2022/09/08 04:05:26;;;;;;;2.38;1.60;;;;;;;17.80;48.06;99289.34;5154420;27;20027;-71
2022/09/08 04:07:51;;;;;;;1.13;0.85;;;;;;;17.80;48.05;99285.84;5152711;27;20049;-67
2022/09/08 04:10:19;;;;;;;1.10;0.88;;;;;;;17.78;48.27;99287.84;5154579;27;20032;-70
2022/09/08 04:12:45;;;;;;;0.77;0.68;;;;;;;17.80;48.38;99301.88;5154218;27;20038;-68
2022/09/08 04:15:11;;;;;;;1.45;0.98;;;;;;;17.81;48.14;99288.31;5154319;27;20119;-73
2022/09/08 04:17:37;;;;;;;1.20;0.95;;;;;;;17.82;48.01;99294.53;5154224;27;20023;-71
2022/09/08 04:20:03;;;;;;;1.73;1.00;;;;;;;17.84;48.31;99287.16;5151829;27;20025;-73
2022/09/08 04:22:29;;;;;;;1.23;0.80;;;;;;;17.85;48.16;99294.19;5154075;27;20042;-71
2022/09/08 04:24:54;;;;;;;1.67;1.30;;;;;;;17.88;47.86;99299.16;5154077;27;20094;-70
2022/09/08 04:27:21;;;;;;;0.70;0.70;;;;;;;17.91;48.23;99293.47;5153554;27;20043;-69
2022/09/08 04:29:47;;;;;;;2.08;0.70;;;;;;;17.93;48.48;99291.47;5151497;27;20027;-68
2022/09/08 04:32:13;;;;;;;2.17;0.93;;;;;;;17.95;48.52;99297.47;5139584;27;20035;-70
2022/09/08 04:34:39;;;;;;;1.92;1.40;;;;;;;17.96;48.17;99296.47;5133565;28;20027;-70
2022/09/08 04:37:05;;;;;;;1.30;1.05;;;;;;;17.95;47.91;99283.25;5139015;27;20019;-71
2022/09/08 04:39:31;;;;;;;3.75;1.40;;;;;;;17.93;47.97;99290.63;5149532;27;20023;-70
2022/09/08 04:41:56;;;;;;;1.90;1.00;;;;;;;17.93;47.77;99299.50;5150271;27;20038;-71
2022/09/08 04:44:22;;;;;;;3.10;1.00;;;;;;;17.90;47.81;99297.16;5150767;27;20224;-68
2022/09/08 04:46:47;;;;;;;2.25;1.20;;;;;;;17.91;48.02;99298.81;5150555;27;20046;-70
2022/09/08 04:49:13;;;;;;;1.33;1.00;;;;;;;17.91;48.02;99304.19;5150112;27;20038;-68
2022/09/08 04:51:39;;;;;;;2.00;1.48;;;;;;;17.91;47.55;99306.84;5148597;27;20053;-72
2022/09/08 04:54:05;;;;;;;1.50;1.10;;;;;;;17.92;47.24;99297.00;5150224;27;20159;-71
2022/09/08 04:56:32;;;;;;;1.63;1.13;;;;;;;17.93;47.42;99304.03;5150424;27;20071;-68
2022/09/08 04:59:00;;;;;;;3.72;1.20;;;;;;;17.92;47.56;99305.84;5150499;27;20023;-71
2022/09/08 05:01:31;;;;;;;2.35;1.10;;;;;;;17.94;47.70;99309.19;5148685;27;20027;-72
2022/09/08 05:04:01;;;;;;;2.10;1.10;;;;;;;17.96;47.85;99317.03;5148910;27;20031;-72
2022/09/08 05:06:29;;;;;;;2.20;1.13;;;;;;;17.97;47.68;99318.69;5149816;27;20023;-70
2022/09/08 05:08:56;;;;;;;1.35;0.98;;;;;;;17.96;47.81;99315.22;5149926;27;20267;-72
2022/09/08 05:11:23;;;;;;;2.42;1.30;;;;;;;17.95;47.66;99318.88;5148438;27;20090;-71
2022/09/08 05:13:49;;;;;;;2.70;1.25;;;;;;;17.96;47.45;99322.38;5132146;27;20027;-71
2022/09/08 05:16:18;;;;;;;1.50;1.02;;;;;;;17.96;47.56;99319.72;5150030;27;20031;-73
2022/09/08 05:18:49;;;;;;;4.57;1.02;;;;;;;17.94;47.63;99319.06;5149679;27;20031;-69
2022/09/08 05:21:15;;;;;;;1.40;1.10;;;;;;;17.94;47.87;99319.06;5146214;27;20057;-69
2022/09/08 05:23:40;;;;;;;1.65;0.80;;;;;;;17.93;47.30;99331.59;5149764;27;20043;-72
2022/09/08 05:26:10;;;;;;;2.72;1.17;;;;;;;17.93;47.23;99334.28;5149661;27;20207;-73
2022/09/08 05:28:38;;;;;;;1.52;1.10;;;;;;;17.94;47.16;99338.63;5149967;27;20023;-70
2022/09/08 05:31:05;;;;;;;1.73;1.40;;;;;;;17.99;47.04;99341.66;5148768;27;20023;-71
2022/09/08 05:33:31;;;;;;;2.25;1.20;;;;;;;18.02;46.57;99332.44;5148321;27;20034;-70
2022/09/08 05:35:57;;;;;;;1.50;1.08;;;;;;;18.05;46.58;99337.44;5149445;27;20058;-71
2022/09/08 05:38:22;;;;;;;1.65;1.08;;;;;;;18.07;46.57;99343.47;5149672;27;20070;-70
2022/09/08 05:40:48;;;;;;;1.50;1.20;;;;;;;18.07;46.51;99345.28;5149487;27;20051;-72
2022/09/08 05:43:15;;;;;;;2.03;1.30;;;;;;;18.07;46.62;99342.63;5147464;27;20046;-69
2022/09/08 05:45:44;;;;;;;1.88;1.38;;;;;;;18.06;46.21;99343.63;5149513;27;20150;-68
2022/09/08 05:48:10;;;;;;;1.65;1.13;;;;;;;18.05;46.38;99342.81;5148768;27;20094;-69
2022/09/08 05:50:36;;;;;;;1.70;1.02;;;;;;;18.04;46.71;99345.63;5148438;27;20064;-68
2022/09/08 05:53:02;;;;;;;1.58;1.20;;;;;;;18.03;46.69;99343.97;5147392;27;20229;-70
2022/09/08 05:55:28;;;;;;;2.08;1.10;;;;;;;18.01;46.88;99349.50;5149242;27;20026;-69
2022/09/08 05:57:54;;;;;;;1.73;1.33;;;;;;;18.01;46.70;99341.47;5148426;27;20136;-71
2022/09/08 06:00:21;;;;;;;2.78;1.70;;;;;;;18.01;46.68;99354.03;5149439;27;20027;-69
2022/09/08 06:02:51;;;;;;;1.50;1.08;;;;;;;18.01;47.06;99360.22;5128621;27;20053;-70
2022/09/08 06:05:18;;;;;;;1.45;1.05;;;;;;;18.01;47.14;99356.72;5149077;27;20079;-70
2022/09/08 06:07:43;;;;;;;3.33;1.80;;;;;;;17.99;46.94;99357.72;5148996;27;20040;-70
2022/09/08 06:10:09;;;;;;;1.25;0.93;;;;;;;17.99;47.31;99352.38;5148734;27;20035;-69
2022/09/08 06:12:34;;;;;;;2.03;1.30;;;;;;;18.01;46.96;99351.38;5148337;27;20098;-68
2022/09/08 06:15:00;;;;;;;2.97;1.58;;;;;;;18.04;46.82;99351.00;5146773;27;20027;-70
2022/09/08 06:17:25;;;;;;;1.85;1.30;;;;;;;18.07;46.44;99356.00;5148451;27;20140;-69
2022/09/08 06:19:51;;;;;;;4.28;1.58;;;;;;;18.08;46.60;99366.56;5148788;27;20035;-74
2022/09/08 06:22:16;;;;;;;2.38;1.52;;;;;;;18.09;46.26;99360.16;5148434;27;20018;-66
2022/09/08 06:24:42;;;;;;;2.00;1.40;;;;;;;18.10;46.42;99364.50;5146349;27;20035;-73
2022/09/08 06:27:18;;;;;;;1.85;1.30;;;;;;;18.10;46.03;99358.34;5148614;27;20046;-69
2022/09/08 06:29:59;;;;;;;2.35;1.27;;;;;;;18.08;46.26;99363.88;5160976;27;20014;-70
2022/09/08 06:32:33;;;;;;;2.05;1.48;;;;;;;18.06;46.20;99373.06;5152680;27;20023;-73
2022/09/08 06:35:12;;;;;;;2.17;1.75;;;;;;;18.06;46.25;99375.75;5146617;27;20054;-69
2022/09/08 06:37:43;;;;;;;1.92;1.27;;;;;;;18.04;46.42;99383.13;5147090;27;20163;-69
2022/09/08 06:40:15;;;;;;;;;;;;;;;17.97;46.89;99386.50;5147107;27;20023;-67
2022/09/08 06:43:01;;;;;;;4.68;1.75;;;;;;;18.03;47.25;99382.31;5145822;27;19919;-66
2022/09/08 06:45:41;;;;;;;3.47;1.60;;;;;;;18.07;46.60;99394.34;5139318;27;20083;-69
2022/09/08 06:48:25;;;;;;;3.42;1.70;;;;;;;18.10;46.60;99393.16;5150188;27;20243;-68
2022/09/08 06:51:16;;;;;;;3.33;2.30;;;;;;;18.14;46.20;99403.34;5147595;27;20121;-69
2022/09/08 06:54:08;;;;;;;3.05;1.58;;;;;;;18.18;45.74;99403.81;5145472;27;20031;-68
2022/09/08 06:56:55;;;;;;;6.50;1.58;;;;;;;18.21;45.58;99408.00;5143200;27;20042;-70
2022/09/08 06:59:36;;;;;;;3.25;1.67;;;;;;;18.22;45.23;99407.00;5151204;27;20092;-69
2022/09/08 07:02:13;;;;;;;3.00;1.17;;;;;;;18.26;45.31;99405.63;5147115;27;20057;-69
2022/09/08 07:05:12;;;;;;;2.30;1.50;;;;;;;18.27;44.83;99418.84;5145815;27;20172;-70
2022/09/08 07:07:40;;;;;;;2.60;1.70;;;;;;;18.25;44.56;99404.81;5137438;27;20071;-69
2022/09/08 07:10:24;;;;;;;3.50;1.48;;;;;;;18.27;44.77;99420.69;5148629;27;20079;-71
2022/09/08 07:13:03;;;;;;;2.13;1.63;;;;;;;18.27;44.63;99420.69;5148719;27;20103;-69
2022/09/08 07:15:49;;;;;;;2.30;1.50;;;;;;;18.26;44.51;99424.38;5148047;27;20041;-69
2022/09/08 07:18:28;;;;;;;8.00;2.53;;;;;;;18.25;44.62;99422.69;5147947;27;20080;-72
2022/09/08 07:21:23;;;;;;;1.92;1.40;;;;;;;18.25;44.58;99430.72;5129804;27;20268;-72
2022/09/08 07:23:50;;;;;;;2.03;1.30;;;;;;;18.24;44.96;99429.91;5127293;27;20039;-71
2022/09/08 07:26:22;;;;;;;2.65;1.33;;;;;;;18.25;44.99;99434.25;5135065;27;20062;-68
2022/09/08 07:28:51;;;;;;;1.95;1.08;;;;;;;18.28;44.82;99431.25;5142282;27;20050;-70
2022/09/08 07:31:20;;;;;;;1.80;1.13;;;;;;;18.28;44.57;99433.91;5147719;27;20027;-69
2022/09/08 07:33:51;;;;;;;4.05;1.60;;;;;;;18.29;44.95;99427.56;5147858;27;20019;-71
2022/09/08 07:36:46;;;;;;;3.75;1.33;;;;;;;18.30;44.90;99434.59;5147336;27;20132;-70
2022/09/08 07:39:20;;;;;;;2.67;1.75;;;;;;;18.32;44.82;99436.22;5109482;27;20090;-72
2022/09/08 07:41:58;;;;;;;5.85;1.58;;;;;;;18.34;44.91;99444.94;5147460;27;20039;-70
2022/09/08 07:44:25;;;;;;;5.88;1.70;;;;;;;18.35;44.73;99433.22;5147569;27;20253;-72
2022/09/08 07:46:58;;;;;;;5.45;1.98;;;;;;;18.38;44.95;99443.59;5153467;27;20029;-72
2022/09/08 07:49:51;;;;;;;15.02;3.13;;;;;;;18.38;45.99;99443.59;5149136;27;20034;-69
2022/09/08 07:52:45;;;;;;;11.98;3.03;;;;;;;18.41;45.51;99438.69;5146456;27;20043;-72
2022/09/08 07:55:27;;;;;;;15.57;4.18;;;;;;;18.40;46.07;99445.06;5150310;27;20232;-70
2022/09/08 07:58:16;;;;;;;17.33;4.10;;;;;;;18.40;45.73;99442.38;5143061;27;20023;-69
2022/09/08 08:00:59;;;;;;;11.02;3.30;;;;;;;18.43;45.29;99452.75;5147451;27;20019;-69
2022/09/08 08:03:43;;;;;;;8.43;2.47;;;;;;;18.41;45.28;99460.13;5147435;27;20137;-70
2022/09/08 08:06:11;;;;;;;14.70;3.63;;;;;;;18.41;45.46;99454.78;5159202;27;20093;-69
2022/09/08 08:08:58;;;;;;;5.70;2.40;;;;;;;18.44;45.10;99464.31;5163769;27;20034;-68
2022/09/08 08:11:41;;;;;;;6.38;2.40;;;;;;;18.44;44.93;99450.94;5147135;27;20295;-69
2022/09/08 08:14:37;;;;;;;7.75;2.25;;;;;;;18.45;44.85;99457.97;5151769;27;20034;-67
2022/09/08 08:17:39;;;;;;;9.05;4.05;;;;;;;18.46;44.59;99448.88;5150610;27;20042;-69
2022/09/08 08:20:04;;;;;;;8.35;2.75;;;;;;;18.47;44.52;99458.59;5149015;27;20034;-67
2022/09/08 08:22:47;;;;;;;6.93;2.75;;;;;;;18.49;44.50;99458.44;5159758;27;20027;-71
2022/09/08 08:25:21;;;;;;;5.75;2.50;;;;;;;18.51;44.22;99453.75;5150990;27;20039;-67
2022/09/08 08:27:55;;;;;;;5.07;2.97;;;;;;;18.54;44.20;99453.38;5167019;27;20043;-71
2022/09/08 08:30:23;;;;;;;9.20;2.95;;;;;;;18.54;44.54;99451.53;5171884;27;20019;-72
2022/09/08 08:33:08;;;;;;;2.92;2.05;;;;;;;18.57;44.16;99450.34;5132840;27;20256;-71
2022/09/08 08:36:07;;;;;;;6.63;2.20;;;;;;;18.56;44.08;99459.41;5130331;27;20166;-69
2022/09/08 08:38:37;;;;;;;4.07;2.15;;;;;;;18.55;43.88;99463.09;5132558;27;20170;-69
2022/09/08 08:41:12;;;;;;;7.35;2.70;;;;;;;18.54;44.34;99459.59;5150799;27;20019;-69
2022/09/08 08:43:44;;;;;;;6.38;2.25;;;;;;;18.54;44.22;99467.63;5150544;27;20129;-70
2022/09/08 08:46:50;;;;;;;9.15;2.83;;;;;;;18.53;44.33;99476.66;5150402;27;20104;-71
2022/09/08 08:49:15;;;;;;;5.38;2.15;;;;;;;18.54;44.19;99475.66;5136200;27;20039;-70
2022/09/08 08:52:05;;;;;;;4.10;2.33;;;;;;;18.55;44.33;99466.63;5150500;27;20034;-70
2022/09/08 08:54:47;;;;;;;2.65;1.55;;;;;;;18.56;44.01;99470.13;5153623;27;20284;-72
2022/09/08 08:57:46;;;;;;;5.78;1.83;;;;;;;18.55;44.03;99477.34;5150189;27;20031;-70
2022/09/08 09:00:53;;;;;;;4.75;1.80;;;;;;;18.55;44.03;99474.66;5149655;27;20031;-71
2022/09/08 09:03:57;;;;;;;8.00;2.50;;;;;;;18.54;44.20;99474.81;5131559;27;20311;-68
2022/09/08 09:06:40;;;;;;;3.92;2.53;;;;;;;18.55;44.44;99476.47;5098293;27;20224;-71
2022/09/08 09:09:31;;;;;;;4.97;2.13;;;;;;;18.52;44.30;99483.03;5150428;27;20094;-70
2022/09/08 09:12:32;;;;;;;4.38;2.40;;;;;;;18.51;44.36;99491.25;5151033;27;20046;-68
2022/09/08 09:15:19;;;;;;;3.60;1.63;;;;;;;18.50;44.31;99495.75;5150138;27;20027;-71
2022/09/08 09:24:27;;;;;;;5.65;2.25;;;;;;;18.43;45.02;99505.53;5149167;27;20085;-69
2022/09/08 09:26:53;;;;;;;4.82;2.00;;;;;;;18.44;44.86;99512.56;5168279;27;20220;-70
2022/09/08 09:29:24;;;;;;;6.07;1.90;;;;;;;18.47;44.67;99517.53;5164123;27;20039;-72
2022/09/08 09:32:21;;;;;;;7.55;1.95;;;;;;;18.50;44.38;99524.41;5155300;27;20244;-70
2022/09/08 09:35:25;;;;;;;2.67;1.67;;;;;;;18.49;44.08;99523.56;5170552;27;20026;-71
2022/09/08 09:38:13;;;;;;;2.65;1.42;;;;;;;18.52;43.99;99522.41;5169796;27;20034;-71
2022/09/08 09:41:10;;;;;;;4.95;1.85;;;;;;;18.52;44.23;99519.72;5149740;27;20029;-70
2022/09/08 09:43:51;;;;;;;3.40;1.55;;;;;;;18.52;43.99;99522.41;5149398;27;20055;-71
2022/09/08 09:46:47;;;;;;;3.85;1.80;;;;;;;18.53;44.00;99518.72;5148628;27;20020;-71
2022/09/08 09:49:35;;;;;;;5.25;1.30;;;;;;;18.53;44.21;99527.56;5152408;27;20087;-70
2022/09/08 09:52:24;;;;;;;3.55;1.73;;;;;;;18.55;44.57;99524.72;5148998;27;20083;-70
2022/09/08 09:55:02;;;;;;;3.97;1.27;;;;;;;18.55;44.31;99530.91;5133847;27;20043;-72
2022/09/08 09:57:55;;;;;;;3.20;1.40;;;;;;;18.56;43.80;99532.59;5149043;27;20184;-67
2022/09/08 10:00:27;;;;;;;3.35;1.52;;;;;;;18.55;44.11;99536.28;5150181;27;20027;-71
2022/09/08 10:03:08;;;;;;;5.55;2.10;;;;;;;18.55;44.13;99533.59;5140924;27;20054;-70
2022/09/08 10:05:55;;;;;;;2.70;1.23;;;;;;;18.57;43.68;99545.00;5147262;27;20023;-71
2022/09/08 10:08:24;;;;;;;5.07;2.45;;;;;;;18.59;43.75;99545.66;5147855;27;20263;-67
2022/09/08 10:10:58;;;;;;;4.75;1.88;;;;;;;18.61;43.73;99548.16;5146457;27;20039;-68
2022/09/08 10:13:26;;;;;;;5.57;2.17;;;;;;;18.61;44.15;99548.16;5148056;27;20075;-67
2022/09/08 10:16:21;;;;;;;5.10;1.83;;;;;;;18.61;44.17;99557.00;5153492;27;20027;-69
2022/09/08 10:19:19;;;;;;;2.45;1.65;;;;;;;18.61;43.69;99548.97;5145110;27;20091;-67
2022/09/08 10:22:18;;;;;;;6.35;2.05;;;;;;;18.61;43.70;99565.06;5146307;27;20019;-67
2022/09/08 10:25:17;;;;;;;4.13;1.85;;;;;;;18.61;43.39;99557.00;5136113;27;20027;-70
2022/09/08 10:28:28;;;;;;;2.58;1.58;;;;;;;18.63;43.37;99559.53;5150159;27;20133;-66
2022/09/08 10:31:14;;;;;;;3.45;1.42;;;;;;;18.61;43.18;99562.38;5144422;27;20042;-69
2022/09/08 10:33:40;;;;;;;3.65;1.63;;;;;;;18.63;43.09;99566.72;5160177;27;20023;-68
2022/09/08 10:36:10;;;;;;;2.80;1.60;;;;;;;18.62;43.33;99568.59;5148058;27;20064;-68
2022/09/08 10:38:55;;;;;;;8.25;1.55;;;;;;;18.63;43.25;99575.63;5151928;27;20050;-68
2022/09/08 10:41:52;;;;;;;4.10;1.60;;;;;;;18.63;43.00;99578.28;5145512;27;20037;-69
2022/09/08 10:44:55;;;;;;;2.70;1.25;;;;;;;18.61;42.83;99567.72;5157197;27;20026;-64
2022/09/08 10:47:35;;;;;;;2.78;1.65;;;;;;;18.61;43.35;99586.50;5137262;27;20034;-69
2022/09/08 10:50:09;;;;;;;3.03;1.17;;;;;;;18.62;43.06;99587.34;5147137;27;20139;-66
2022/09/08 10:52:41;;;;;;;3.53;1.30;;;;;;;18.64;43.05;99593.38;5151016;27;20234;-69
2022/09/08 10:55:40;;;;;;;2.08;1.27;;;;;;;18.64;42.82;99596.03;5147780;27;20050;-69
2022/09/08 10:58:33;;;;;;;2.88;1.30;;;;;;;18.62;42.97;99598.06;5145354;27;20054;-68
2022/09/08 11:01:34;;;;;;;2.75;1.50;;;;;;;18.63;43.34;99606.91;5152979;27;20023;-70
2022/09/08 11:04:17;;;;;;;6.13;1.58;;;;;;;18.61;43.59;99605.25;5141869;27;20038;-69
2022/09/08 11:07:01;;;;;;;1.85;1.00;;;;;;;18.63;43.10;99605.09;5149354;27;20031;-67
2022/09/08 11:09:45;;;;;;;2.78;0.95;;;;;;;18.61;43.41;99591.84;5148057;27;20023;-69
2022/09/08 11:12:32;;;;;;;4.28;2.10;;;;;;;18.64;43.34;99595.19;5148235;27;20019;-67
2022/09/08 11:15:19;;;;;;;2.10;1.20;;;;;;;18.63;43.08;99589.00;5148029;27;20027;-69
2022/09/08 11:17:47;;;;;;;1.30;1.00;;;;;;;18.66;43.31;99591.34;5147882;27;20023;-67
2022/09/08 11:20:19;;;;;;;2.20;1.40;;;;;;;18.68;43.31;99593.84;5147783;27;20022;-68
2022/09/08 11:23:06;;;;;;;5.05;1.50;;;;;;;18.69;44.03;99595.53;5147750;27;20034;-68
2022/09/08 11:25:57;;;;;;;3.67;1.67;;;;;;;18.70;43.95;99597.19;5147521;27;20043;-69
2022/09/08 11:32:04;;;;;;;4.03;1.77;;;;;;;18.72;44.27;99596.00;5147746;27;20316;-69
2022/09/08 11:34:29;;;;;;;3.78;1.90;;;;;;;18.72;44.30;99595.19;5147724;27;20051;-70
2022/09/08 11:37:32;;;;;;;2.80;1.38;;;;;;;18.73;43.76;99605.72;5147630;27;20027;-67
2022/09/08 11:40:25;;;;;;;2.50;1.67;;;;;;;18.72;44.21;99613.94;5147771;27;20031;-67
2022/09/08 11:42:57;;;;;;;1.88;1.00;;;;;;;18.70;43.57;99618.63;5147406;27;20159;-70
2022/09/08 11:45:22;;;;;;;2.90;1.05;;;;;;;18.72;43.94;99613.94;5147375;27;20027;-67
2022/09/08 11:48:29;;;;;;;2.47;1.20;;;;;;;18.69;43.59;99619.66;5150806;27;20026;-68
2022/09/08 11:51:23;;;;;;;2.28;1.40;;;;;;;18.68;44.06;99616.13;5068887;28;20025;-71
2022/09/08 11:54:17;;;;;;;3.90;1.25;;;;;;;18.69;44.36;99616.97;5069063;28;20110;-66
2022/09/08 11:57:23;;;;;;;2.35;1.40;;;;;;;18.69;44.26;99622.31;5141073;27;20313;-68
2022/09/08 12:00:11;;;;;;;1.92;1.17;;;;;;;18.67;43.80;99614.47;5151626;27;20256;-67
2022/09/08 12:03:14;;;;;;;1.60;1.10;;;;;;;18.70;43.47;99619.47;5133372;27;20152;-68
2022/09/08 12:06:24;;;;;;;2.00;1.08;;;;;;;18.70;43.69;99611.41;5151416;27;20092;-69
2022/09/08 12:09:21;;;;;;;2.30;1.30;;;;;;;18.72;43.77;99608.59;5146335;27;20042;-70
2022/09/08 12:12:29;;;;;;;2.35;1.30;;;;;;;18.73;43.47;99612.94;5151248;27;20023;-68
2022/09/08 12:15:19;;;;;;;1.73;0.90;;;;;;;18.72;43.16;99608.59;5075674;28;20031;-70
2022/09/08 12:18:02;;;;;;;3.03;1.25;;;;;;;18.74;43.36;99614.63;5139749;27;20027;-68
2022/09/08 12:21:12;;;;;;;2.63;1.30;;;;;;;18.74;43.39;99609.25;5151019;27;20031;-69
2022/09/08 12:24:08;;;;;;;3.20;0.98;;;;;;;18.73;43.32;99613.75;5151008;27;20023;-66
2022/09/08 12:26:54;;;;;;;3.45;0.80;;;;;;;18.72;43.33;99603.22;5108610;27;20035;-68
2022/09/08 12:29:35;;;;;;;3.50;0.93;;;;;;;18.74;43.33;99617.28;5150796;27;20023;-70